createdAt,value
2023-04-02T00:01:39.828Z,69.33
2023-04-02T00:05:56.055Z,69.90
2023-04-02T00:09:38.834Z,69.73
2023-04-02T00:13:07.287Z,70.02
2023-04-02T00:16:27.413Z,69.78
2023-04-02T00:19:43.026Z,69.91
2023-04-02T00:22:52.008Z,69.74
2023-04-02T00:26:00.518Z,69.83
2023-04-02T00:29:12.410Z,70.86
2023-04-02T00:32:28.752Z,70.16
2023-04-02T00:35:40.869Z,69.52
2023-04-02T00:38:51.963Z,70.24
2023-04-02T00:42:06.066Z,70.33
2023-04-02T00:45:24.911Z,70.22
2023-04-02T00:48:47.874Z,70.56
2023-04-02T00:52:02.739Z,70.20
2023-04-02T00:55:18.745Z,70.32
2023-04-02T00:58:33.135Z,70.34
2023-04-02T01:01:42.756Z,71.39
2023-04-02T01:04:57.133Z,71.60
2023-04-02T01:08:16.981Z,71.14
2023-04-02T01:12:14.691Z,72.26
2023-04-02T01:15:31.578Z,71.22
2023-04-02T01:18:54.288Z,71.34
2023-04-02T01:22:10.779Z,72.24
2023-04-02T01:25:29.056Z,70.71
2023-04-02T01:29:02.845Z,70.19
2023-04-02T01:32:15.085Z,70.98
2023-04-02T01:35:26.739Z,71.22
2023-04-02T01:38:45.116Z,70.70
2023-04-02T01:42:09.823Z,70.73
2023-04-02T01:45:24.334Z,70.56
2023-04-02T01:48:33.202Z,71.12
2023-04-02T01:51:45.538Z,71.28
2023-04-02T01:54:57.212Z,71.64
2023-04-02T01:58:06.604Z,70.94
2023-04-02T02:01:20.682Z,71.09
2023-04-02T02:04:34.005Z,71.13
2023-04-02T02:07:42.944Z,71.14
2023-04-02T02:10:51.974Z,71.24
2023-04-02T02:14:08.172Z,70.88
2023-04-02T02:17:24.291Z,71.27
2023-04-02T02:20:36.264Z,70.88
2023-04-02T02:23:44.791Z,71.54
2023-04-02T02:27:29.259Z,71.97
2023-04-02T02:30:52.247Z,71.05
2023-04-02T02:34:10.232Z,71.50
2023-04-02T02:37:26.287Z,71.61
2023-04-02T02:40:46.227Z,71.95
2023-04-02T02:44:03.816Z,72.46
2023-04-02T02:47:22.076Z,72.21
2023-04-02T02:50:35.384Z,72.09
2023-04-02T02:53:52.045Z,72.12
2023-04-02T02:57:24.509Z,72.53
2023-04-02T03:00:33.725Z,71.93
2023-04-02T03:03:42.530Z,71.83
2023-04-02T03:06:55.230Z,71.47
2023-04-02T03:10:15.255Z,71.27
2023-04-02T03:13:29.209Z,71.64
2023-04-02T03:16:46.657Z,70.76
2023-04-02T03:20:02.571Z,71.44
2023-04-02T03:23:21.676Z,72.13
2023-04-02T03:26:40.160Z,72.18
2023-04-02T03:30:05.251Z,71.32
2023-04-02T03:33:22.680Z,71.54
2023-04-02T03:36:38.361Z,71.55
2023-04-02T03:39:54.606Z,71.83
2023-04-02T03:43:13.008Z,72.18
2023-04-02T03:46:35.874Z,71.37
2023-04-02T03:49:54.971Z,71.02
2023-04-02T03:53:05.437Z,71.21
2023-04-02T03:56:29.154Z,71.42
2023-04-02T03:59:49.789Z,71.67
2023-04-02T04:03:08.274Z,72.45
2023-04-02T04:06:23.742Z,72.21
2023-04-02T04:09:38.144Z,72.06
2023-04-02T04:12:51.676Z,71.52
2023-04-02T04:16:08.948Z,72.50
2023-04-02T04:19:25.360Z,72.53
2023-04-02T04:22:34.147Z,72.15
2023-04-02T04:26:01.911Z,72.72
2023-04-02T04:29:28.359Z,72.61
2023-04-02T04:32:43.070Z,72.70
2023-04-02T04:36:02.047Z,72.29
2023-04-02T04:39:24.216Z,72.34
2023-04-02T04:42:37.237Z,72.89
2023-04-02T04:45:59.334Z,72.44
2023-04-02T04:49:15.676Z,72.71
2023-04-02T04:52:29.051Z,73.25
2023-04-02T04:55:41.421Z,73.22
2023-04-02T04:58:57.821Z,71.95
2023-04-02T05:02:15.043Z,72.48
2023-04-02T05:05:31.241Z,72.88
2023-04-02T05:08:48.444Z,73.24
2023-04-02T05:12:11.772Z,72.63
2023-04-02T05:15:30.320Z,73.00
2023-04-02T05:18:48.036Z,71.99
2023-04-02T05:22:06.273Z,72.53
2023-04-02T05:25:25.869Z,72.29
2023-04-02T05:28:44.083Z,72.30
2023-04-02T05:32:04.241Z,71.98
2023-04-02T05:35:22.009Z,71.74
2023-04-02T05:38:34.225Z,71.87
2023-04-02T05:41:47.595Z,72.22
2023-04-02T05:45:24.002Z,71.67
2023-04-02T05:48:38.901Z,71.86
2023-04-02T05:51:58.040Z,70.70
2023-04-02T05:55:39.220Z,70.78
2023-04-02T05:58:59.890Z,70.15
2023-04-02T06:04:02.131Z,69.95
2023-04-02T06:07:19.557Z,69.42
2023-04-02T06:10:38.509Z,69.29
2023-04-02T06:13:47.935Z,68.96
2023-04-02T06:16:56.467Z,70.45
2023-04-02T06:20:09.836Z,69.11
2023-04-02T06:23:24.489Z,69.05
2023-04-02T06:26:42.404Z,68.97
2023-04-02T06:30:04.242Z,69.33
2023-04-02T06:33:15.565Z,69.15
2023-04-02T06:36:29.552Z,69.13
2023-04-02T06:39:43.395Z,68.98
2023-04-02T06:42:59.868Z,69.16
2023-04-02T06:46:24.880Z,68.50
2023-04-02T06:49:48.219Z,68.11
2023-04-02T06:53:05.155Z,67.59
2023-04-02T06:56:27.068Z,68.25
2023-04-02T06:59:36.454Z,67.46
2023-04-02T07:02:47.686Z,67.08
2023-04-02T07:05:57.795Z,66.83
2023-04-02T07:09:09.115Z,66.82
2023-04-02T07:12:25.708Z,66.49
2023-04-02T07:15:35.060Z,66.46
2023-04-02T07:18:44.555Z,66.43
2023-04-02T07:21:55.426Z,66.26
2023-04-02T07:25:08.290Z,65.96
2023-04-02T07:28:17.409Z,65.34
2023-04-02T07:31:29.197Z,64.36
2023-04-02T07:34:37.514Z,63.31
2023-04-02T07:37:45.884Z,62.79
2023-04-02T07:40:56.035Z,63.15
2023-04-02T07:44:05.953Z,62.42
2023-04-02T07:47:14.201Z,62.50
2023-04-02T07:50:22.833Z,61.94
2023-04-02T07:53:34.366Z,62.06
2023-04-02T07:56:44.662Z,61.52
2023-04-02T07:59:56.415Z,61.96
2023-04-02T08:03:05.842Z,60.66
2023-04-02T08:06:14.729Z,60.68
2023-04-02T08:09:23.148Z,60.87
2023-04-02T08:12:33.035Z,61.10
2023-04-02T08:15:41.609Z,61.57
2023-04-02T08:18:50.318Z,61.69
2023-04-02T08:21:58.509Z,61.75
2023-04-02T08:25:08.303Z,60.61
2023-04-02T08:28:18.563Z,61.37
2023-04-02T08:31:27.576Z,60.63
2023-04-02T08:34:36.144Z,61.71
2023-04-02T08:37:44.862Z,60.93
2023-04-02T08:40:57.585Z,61.24
2023-04-02T08:44:38.506Z,62.17
2023-04-02T08:47:47.362Z,62.17
2023-04-02T08:50:58.956Z,60.02
2023-04-02T08:57:46.344Z,62.13
2023-04-02T09:00:58.839Z,59.65
2023-04-02T09:04:16.395Z,59.49
2023-04-02T09:07:24.860Z,58.63
2023-04-02T09:10:43.512Z,58.73
2023-04-02T09:13:58.001Z,58.73
2023-04-02T09:17:18.771Z,58.00
2023-04-02T09:20:29.430Z,59.25
2023-04-02T09:23:37.986Z,60.09
2023-04-02T09:26:47.986Z,61.75
2023-04-02T09:30:03.852Z,59.93
2023-04-02T09:33:13.713Z,59.13
2023-04-02T09:36:38.438Z,61.17
2023-04-02T09:39:47.193Z,61.94
2023-04-02T09:43:13.228Z,63.24
2023-04-02T09:46:26.565Z,63.99
2023-04-02T09:49:39.912Z,62.65
2023-04-02T09:52:48.149Z,59.16
2023-04-02T09:56:15.331Z,59.44
2023-04-02T09:59:23.606Z,58.59
2023-04-02T10:02:33.683Z,56.33
2023-04-02T10:05:43.967Z,56.64
2023-04-02T10:08:53.000Z,55.97
2023-04-02T10:12:06.503Z,58.12
2023-04-02T10:15:23.381Z,56.75
2023-04-02T10:18:45.303Z,56.16
2023-04-02T10:21:56.527Z,56.58
2023-04-02T10:25:15.800Z,54.82
2023-04-02T10:28:47.373Z,51.70
2023-04-02T10:32:06.635Z,56.40
2023-04-02T10:35:33.733Z,58.62
2023-04-02T10:38:50.693Z,58.10
2023-04-02T10:42:12.589Z,60.36
2023-04-02T10:45:38.983Z,59.27
2023-04-02T10:49:01.571Z,61.60
2023-04-02T10:52:20.254Z,58.81
2023-04-02T10:55:40.935Z,57.59
2023-04-02T10:59:02.919Z,59.94
2023-04-02T11:02:34.789Z,58.30
2023-04-02T11:05:48.921Z,58.17
2023-04-02T11:09:03.417Z,55.46
2023-04-02T11:12:24.535Z,55.36
2023-04-02T11:15:33.798Z,55.11
2023-04-02T11:18:43.184Z,58.16
2023-04-02T11:22:00.068Z,55.12
2023-04-02T11:25:24.667Z,52.65
2023-04-02T11:28:34.967Z,50.73
2023-04-02T11:31:45.434Z,49.99
2023-04-02T11:35:38.103Z,52.39
2023-04-02T11:38:54.905Z,53.75
2023-04-02T11:42:24.912Z,54.44
2023-04-02T11:45:59.409Z,51.81
2023-04-02T11:50:01.663Z,52.48
2023-04-02T11:53:25.539Z,52.15
2023-04-02T11:56:45.661Z,55.21
2023-04-02T12:00:18.360Z,54.88
2023-04-02T12:04:12.052Z,57.25
2023-04-02T12:08:05.240Z,58.17
2023-04-02T12:11:15.847Z,59.24
2023-04-02T12:14:43.322Z,59.01
2023-04-02T12:17:52.270Z,59.09
2023-04-02T12:21:02.384Z,59.63
2023-04-02T12:24:22.406Z,61.81
2023-04-02T12:27:32.570Z,60.21
2023-04-02T12:30:42.540Z,59.00
2023-04-02T12:33:54.380Z,57.29
2023-04-02T12:37:07.043Z,57.14
2023-04-02T12:40:19.738Z,55.46
2023-04-02T12:43:31.436Z,55.38
2023-04-02T12:46:41.652Z,54.74
2023-04-02T12:49:52.243Z,54.47
2023-04-02T12:53:02.135Z,57.72
2023-04-02T12:56:22.448Z,60.09
2023-04-02T12:59:38.493Z,63.16
2023-04-02T13:02:50.375Z,65.00
2023-04-02T13:05:59.041Z,63.66
2023-04-02T13:09:30.149Z,66.42
2023-04-02T13:12:41.784Z,68.13
2023-04-02T13:16:05.044Z,69.81
2023-04-02T13:19:27.265Z,71.85
2023-04-02T13:22:35.748Z,71.66
2023-04-02T13:25:45.736Z,72.07
2023-04-02T13:29:03.566Z,72.75
2023-04-02T13:32:13.856Z,73.29
2023-04-02T13:35:22.486Z,75.97
2023-04-02T13:38:31.169Z,76.88
2023-04-02T13:41:44.614Z,76.36
2023-04-02T13:44:53.034Z,75.88
2023-04-02T13:48:02.022Z,76.36
2023-04-02T13:51:17.150Z,75.70
2023-04-02T13:54:33.805Z,77.68
2023-04-02T13:57:43.400Z,78.09
2023-04-02T14:00:52.230Z,77.48
2023-04-02T14:04:01.640Z,78.36
2023-04-02T14:07:34.993Z,80.48
2023-04-02T14:11:03.157Z,81.45
2023-04-02T14:14:59.470Z,78.98
2023-04-02T14:18:36.639Z,79.35
2023-04-02T14:22:01.234Z,79.94
2023-04-02T14:25:27.396Z,80.32
2023-04-02T14:28:50.673Z,79.36
2023-04-02T14:32:10.763Z,78.04
2023-04-02T14:35:29.879Z,78.11
2023-04-02T14:38:51.820Z,79.49
2023-04-02T14:42:07.910Z,78.75
2023-04-02T14:45:32.504Z,81.49
2023-04-02T14:48:54.377Z,80.15
2023-04-02T14:52:07.260Z,80.47
2023-04-02T14:55:27.610Z,81.94
2023-04-02T14:58:41.707Z,81.43
2023-04-02T15:01:57.791Z,81.40
2023-04-02T15:05:19.439Z,79.91
2023-04-02T15:08:31.949Z,79.03
2023-04-02T15:11:47.212Z,78.38
2023-04-02T15:15:06.526Z,77.02
2023-04-02T15:18:16.837Z,76.35
2023-04-02T15:22:05.903Z,75.87
2023-04-02T15:25:30.574Z,74.36
2023-04-02T15:28:47.873Z,75.06
2023-04-02T15:32:09.620Z,75.88
2023-04-02T15:35:34.732Z,75.64
2023-04-02T15:38:48.702Z,75.38
2023-04-02T15:42:16.097Z,75.69
2023-04-02T15:45:34.748Z,76.78
2023-04-02T15:49:20.329Z,76.53
2023-04-02T15:52:39.427Z,76.88
2023-04-02T15:56:00.796Z,78.19
2023-04-02T15:59:35.987Z,78.53
2023-04-02T16:03:23.066Z,78.54
2023-04-02T16:06:44.587Z,79.32
2023-04-02T16:10:08.559Z,79.61
2023-04-02T16:13:27.086Z,79.59
2023-04-02T16:16:37.126Z,79.86
2023-04-02T16:19:51.144Z,79.30
2023-04-02T16:23:07.569Z,79.68
2023-04-02T16:26:36.094Z,79.89
2023-04-02T16:30:05.513Z,80.07
2023-04-02T16:33:51.993Z,81.55
2023-04-02T16:37:11.662Z,80.67
2023-04-02T16:40:36.668Z,81.02
2023-04-02T16:44:01.021Z,81.18
2023-04-02T16:47:30.752Z,82.79
2023-04-02T16:50:56.227Z,83.52
2023-04-02T16:54:13.128Z,83.38
2023-04-02T16:57:37.011Z,83.28
2023-04-02T17:00:52.593Z,83.27
2023-04-02T17:04:25.668Z,83.46
2023-04-02T17:07:40.675Z,83.83
2023-04-02T17:10:57.417Z,83.89
2023-04-02T17:14:13.568Z,83.69
2023-04-02T17:17:24.346Z,83.96
2023-04-02T17:20:34.495Z,83.81
2023-04-02T17:27:13.363Z,84.31
2023-04-02T17:30:37.236Z,83.74
2023-04-02T17:33:45.777Z,84.06
2023-04-02T17:37:21.363Z,83.94
2023-04-02T17:40:37.772Z,83.93
2023-04-02T17:43:59.354Z,83.56
2023-04-02T17:47:21.283Z,84.31
2023-04-02T17:51:04.086Z,84.62
2023-04-02T17:54:38.326Z,83.81
2023-04-02T17:58:05.212Z,84.84
2023-04-02T18:01:26.300Z,84.78
2023-04-02T18:04:48.146Z,85.88
2023-04-02T18:08:14.513Z,85.67
2023-04-02T18:11:41.327Z,85.83
2023-04-02T18:15:06.893Z,84.02
2023-04-02T18:18:36.199Z,84.42
2023-04-02T18:21:55.499Z,83.19
2023-04-02T18:25:27.691Z,84.32
2023-04-02T18:28:55.180Z,83.49
2023-04-02T18:32:37.170Z,82.93
2023-04-02T18:35:59.691Z,82.86
2023-04-02T18:39:22.764Z,82.56
2023-04-02T18:42:53.253Z,81.76
2023-04-02T18:46:18.783Z,81.39
2023-04-02T18:49:36.878Z,81.28
2023-04-02T18:52:46.375Z,80.83
2023-04-02T18:56:00.307Z,81.31
2023-04-02T18:59:31.430Z,81.53
2023-04-02T19:02:48.420Z,81.58
2023-04-02T19:06:03.014Z,81.61
2023-04-02T19:09:20.697Z,82.01
2023-04-02T19:12:33.771Z,82.20
2023-04-02T19:16:19.469Z,82.03
2023-04-02T19:19:31.810Z,82.55
2023-04-02T19:22:56.081Z,81.79
2023-04-02T19:26:10.593Z,82.73
2023-04-02T19:29:36.033Z,83.31
2023-04-02T19:32:58.394Z,84.27
2023-04-02T19:36:41.553Z,83.71
2023-04-02T19:40:33.001Z,82.64
2023-04-02T19:43:41.627Z,82.13
2023-04-02T19:46:51.763Z,82.29
2023-04-02T19:50:00.311Z,81.47
2023-04-02T19:53:10.105Z,81.25
2023-04-02T19:56:18.650Z,80.90
2023-04-02T19:59:27.056Z,81.48
2023-04-02T20:02:35.670Z,81.93
2023-04-02T20:05:43.795Z,82.01
2023-04-02T20:08:53.771Z,82.23
2023-04-02T20:12:01.933Z,82.26
2023-04-02T20:15:11.728Z,82.88
2023-04-02T20:18:21.117Z,83.33
2023-04-02T20:21:34.635Z,82.44
2023-04-02T20:24:44.210Z,82.69
2023-04-02T20:27:53.470Z,82.29
2023-04-02T20:31:11.193Z,81.36
2023-04-02T20:34:19.967Z,82.26
2023-04-02T20:37:29.454Z,82.22
2023-04-02T20:40:40.876Z,81.65
2023-04-02T20:43:49.888Z,82.18
2023-04-02T20:46:58.730Z,82.59
2023-04-02T20:50:09.011Z,82.90
2023-04-02T20:53:17.551Z,82.47
2023-04-02T20:56:27.846Z,83.88
2023-04-02T20:59:36.339Z,83.46
2023-04-02T21:02:44.940Z,83.66
2023-04-02T21:05:53.090Z,84.00
2023-04-02T21:09:05.798Z,83.72
2023-04-02T21:12:18.117Z,84.19
2023-04-02T21:15:26.404Z,83.91
2023-04-02T21:18:35.109Z,83.85
2023-04-02T21:21:44.437Z,82.27
2023-04-02T21:24:52.699Z,83.40
2023-04-02T21:28:02.289Z,83.61
2023-04-02T21:31:13.477Z,83.14
2023-04-02T21:34:21.710Z,83.33
2023-04-02T21:37:32.778Z,83.20
2023-04-02T21:40:41.365Z,83.34
2023-04-02T21:43:51.619Z,83.76
2023-04-02T21:46:59.818Z,83.68
2023-04-02T21:50:10.891Z,83.62
2023-04-02T21:53:19.003Z,84.00
2023-04-02T21:56:29.942Z,83.43
2023-04-02T21:59:39.712Z,83.43
2023-04-02T22:02:47.957Z,83.05
2023-04-02T22:06:10.655Z,83.71
2023-04-02T22:09:23.346Z,83.77
2023-04-02T22:12:31.749Z,84.66
2023-04-02T22:15:41.547Z,84.40
2023-04-02T22:18:52.083Z,84.68
2023-04-02T22:22:03.217Z,84.06
2023-04-02T22:25:11.756Z,83.70
2023-04-02T22:28:26.340Z,83.42
2023-04-02T22:31:36.821Z,83.87
2023-04-02T22:34:45.848Z,84.11
2023-04-02T22:37:54.843Z,83.42
2023-04-02T22:41:09.408Z,83.92
2023-04-02T22:44:17.843Z,83.79
2023-04-02T22:47:27.576Z,83.66
2023-04-02T22:50:36.199Z,83.58
2023-04-02T22:53:45.553Z,83.61
2023-04-02T22:56:54.019Z,83.36
2023-04-02T23:00:02.194Z,83.65
2023-04-02T23:03:11.706Z,83.47
2023-04-02T23:06:20.356Z,83.29
2023-04-02T23:09:28.727Z,83.01
2023-04-02T23:12:37.052Z,83.55
2023-04-02T23:15:46.052Z,83.23
2023-04-02T23:18:56.661Z,83.65
2023-04-02T23:22:05.245Z,82.76
2023-04-02T23:25:13.622Z,82.55
2023-04-02T23:28:21.701Z,83.36
2023-04-02T23:31:30.212Z,83.29
2023-04-02T23:34:39.881Z,83.76
2023-04-02T23:37:50.615Z,83.11
2023-04-02T23:40:59.008Z,83.30
2023-04-02T23:44:07.771Z,83.22
2023-04-02T23:47:16.291Z,83.56
2023-04-02T23:50:26.317Z,83.50
2023-04-02T23:53:35.581Z,83.03
2023-04-02T23:56:44.145Z,83.43
2023-04-02T23:59:52.367Z,83.54
